Time;durP1;ratioP1;P1;durP2;ratioP2;P2;SDS_P1;SDS_P2;PMS_P1;PMS_P2;Temp;Humidity;BMP_temperature;BMP_pressure;BME280_temperature;BME280_humidity;BME280_pressure;Samples;Min_cycle;Max_cycle;Signal;HPM_P1;HPM_P2
2021/08/12 00:02:25;;;;;;;11.55;6.85;;;;;;;27.91;51.24;101384.34;1666046;85;21095;-47
2021/08/12 00:04:52;;;;;;;9.78;6.58;;;;;;;27.89;51.78;101387.64;1665744;85;20997;-48
2021/08/12 00:07:20;;;;;;;8.40;6.60;;;;;;;27.87;51.87;101388.26;1662271;85;21045;-49
2021/08/12 00:09:47;;;;;;;9.30;6.70;;;;;;;27.85;52.02;101387.53;1658366;84;21084;-49
2021/08/12 00:12:15;;;;;;;9.03;7.42;;;;;;;27.84;52.04;101389.87;1665367;84;21051;-49
2021/08/12 00:14:42;;;;;;;8.45;7.47;;;;;;;27.81;52.04;101392.78;1666113;85;21044;-49
2021/08/12 00:17:08;;;;;;;9.13;7.08;;;;;;;27.79;52.52;101392.92;1661910;85;21357;-49
2021/08/12 00:19:35;;;;;;;10.88;6.87;;;;;;;27.75;52.32;101391.48;1666177;85;21012;-49
2021/08/12 00:22:02;;;;;;;11.78;6.67;;;;;;;27.71;52.30;101396.72;1664302;85;21000;-47
2021/08/12 00:24:28;;;;;;;11.53;7.87;;;;;;;27.67;52.54;101394.42;1663385;85;20993;-49
2021/08/12 00:26:55;;;;;;;12.78;7.50;;;;;;;27.65;52.73;101404.40;1663201;85;21520;-51
2021/08/12 00:29:21;;;;;;;7.70;6.95;;;;;;;27.61;53.18;101398.95;1663398;85;21092;-49
2021/08/12 00:31:49;;;;;;;7.97;6.85;;;;;;;27.58;52.90;101399.19;1662781;85;21064;-49
2021/08/12 00:34:16;;;;;;;15.53;6.72;;;;;;;27.55;52.73;101400.79;1665194;84;21558;-48
2021/08/12 00:36:43;;;;;;;11.57;7.33;;;;;;;27.50;52.69;101402.98;1666046;85;21036;-47
2021/08/12 00:39:10;;;;;;;9.65;6.30;;;;;;;27.45;52.85;101395.84;1665242;85;22435;-50
2021/08/12 00:41:40;;;;;;;7.55;6.40;;;;;;;27.43;52.86;101395.12;1663282;85;21029;-49
2021/08/12 00:44:08;;;;;;;12.00;6.73;;;;;;;27.39;52.87;101399.36;1662763;84;21028;-49
2021/08/12 00:46:35;;;;;;;8.70;6.47;;;;;;;27.41;52.95;101405.09;1665088;85;21890;-47
2021/08/12 00:49:03;;;;;;;8.08;6.47;;;;;;;27.38;52.96;101403.03;1666897;85;21080;-49
2021/08/12 00:51:30;;;;;;;8.23;6.10;;;;;;;27.38;52.96;101411.05;1666206;85;21580;-48
2021/08/12 00:53:57;;;;;;;10.05;5.80;;;;;;;27.36;53.25;101410.80;1664841;85;21025;-49
2021/08/12 00:56:28;;;;;;;9.20;6.70;;;;;;;27.35;53.31;101412.61;1663194;84;21556;-47
2021/08/12 00:58:55;;;;;;;7.58;6.58;;;;;;;27.33;53.45;101415.02;1637318;86;21136;-50
2021/08/12 01:01:21;;;;;;;8.45;6.65;;;;;;;27.30;53.35;101418.81;1646204;86;21042;-47
2021/08/12 01:03:48;;;;;;;12.78;6.80;;;;;;;27.27;53.62;101413.70;1639028;87;21091;-50
2021/08/12 01:06:19;;;;;;;7.40;6.15;;;;;;;27.27;53.72;101416.37;1641367;87;21019;-51
2021/08/12 01:09:01;;;;;;;8.30;6.83;;;;;;;27.26;53.81;101414.69;1629542;86;21128;-48
2021/08/12 01:11:41;;;;;;;;;;;;;;;27.25;53.79;101416.98;1595512;88;21027;-49
2021/08/12 01:14:37;;;;;;;10.85;6.58;;;;;;;27.23;53.56;101417.59;1592483;89;20142;-50
2021/08/12 01:17:08;;;;;;;8.60;6.25;;;;;;;27.18;53.24;101415.76;1587852;89;21019;-49
2021/08/12 01:20:06;;;;;;;8.08;6.53;;;;;;;27.14;53.32;101413.48;1563473;91;21101;-47
2021/08/12 01:22:41;;;;;;;8.95;6.47;;;;;;;27.11;53.61;101426.59;1576746;89;21116;-50
2021/08/12 01:25:27;;;;;;;9.28;6.53;;;;;;;27.09;53.37;101428.54;1561447;90;21063;-50
2021/08/12 01:27:55;;;;;;;8.23;7.03;;;;;;;27.05;54.11;101427.09;1562934;91;21041;-48
2021/08/12 01:30:25;;;;;;;8.83;7.33;;;;;;;27.03;54.39;101425.03;1566297;90;21025;-47
2021/08/12 01:33:24;;;;;;;10.25;6.92;;;;;;;27.02;54.53;101421.98;1519385;93;21083;-48
2021/08/12 01:35:51;;;;;;;10.68;7.37;;;;;;;27.00;54.49;101420.39;1518360;93;22671;-50
2021/08/12 01:38:21;;;;;;;9.60;7.53;;;;;;;27.01;54.63;101424.30;1516862;93;21050;-48
2021/08/12 01:40:48;;;;;;;8.68;6.70;;;;;;;27.01;54.40;101424.78;1566480;90;21597;-50
2021/08/12 01:43:17;;;;;;;8.50;6.62;;;;;;;26.98;54.47;101423.20;1533151;92;21077;-47
2021/08/12 01:45:50;;;;;;;11.50;6.87;;;;;;;26.98;54.58;101421.00;1479060;96;21586;-46
2021/08/12 01:48:18;;;;;;;12.70;6.50;;;;;;;26.97;54.30;101424.18;1460062;96;21175;-47
2021/08/12 01:50:45;;;;;;;10.15;6.65;;;;;;;26.94;54.05;101419.06;1506319;94;21253;-46
2021/08/12 01:53:12;;;;;;;7.90;6.55;;;;;;;26.93;54.06;101420.06;1487674;95;21088;-49
2021/08/12 01:55:39;;;;;;;8.53;6.40;;;;;;;26.92;54.32;101419.67;1490307;95;21188;-50
2021/08/12 01:58:05;;;;;;;8.80;6.45;;;;;;;26.91;53.72;101426.48;1469274;96;21081;-47
2021/08/12 02:00:32;;;;;;;7.67;6.45;;;;;;;26.89;53.95;101426.61;1477770;95;21644;-47
2021/08/12 02:03:00;;;;;;;10.78;6.65;;;;;;;26.87;53.89;101433.90;1505756;93;21176;-50
2021/08/12 02:05:27;;;;;;;10.80;7.05;;;;;;;26.84;53.44;101439.47;1494670;94;21102;-48
2021/08/12 02:07:54;;;;;;;9.68;6.15;;;;;;;26.77;53.87;101431.55;1486069;94;21155;-49
2021/08/12 02:10:21;;;;;;;8.88;6.42;;;;;;;26.77;53.87;101431.55;1490575;94;21579;-47
2021/08/12 02:12:48;;;;;;;8.95;6.20;;;;;;;26.75;53.76;101436.68;1490848;94;21245;-50
2021/08/12 02:15:16;;;;;;;8.93;6.45;;;;;;;26.74;54.07;101434.48;1486147;94;21182;-51
2021/08/12 02:17:43;;;;;;;10.50;6.33;;;;;;;26.74;53.85;101443.83;1556390;91;21065;-50
2021/08/12 02:20:12;;;;;;;8.63;6.58;;;;;;;26.72;53.80;101439.58;1533186;91;21058;-48
2021/08/12 02:22:48;;;;;;;9.33;6.10;;;;;;;26.71;53.39;101444.02;1561754;89;21067;-52
2021/08/12 02:25:48;;;;;;;8.45;7.12;;;;;;;26.67;53.47;101437.22;1504613;91;21229;-47
2021/08/12 02:28:15;;;;;;;8.95;6.65;;;;;;;26.65;53.61;101440.50;1525370;91;21089;-47
2021/08/12 02:30:43;;;;;;;7.37;6.20;;;;;;;26.62;54.13;101448.77;1511770;93;21058;-51
2021/08/12 02:33:16;;;;;;;9.25;6.42;;;;;;;26.61;54.31;101447.05;1516592;93;21139;-49
2021/08/12 02:35:42;;;;;;;7.97;6.92;;;;;;;26.60;54.27;101441.36;1510198;93;21205;-50
2021/08/12 02:38:11;;;;;;;7.47;6.72;;;;;;;26.60;53.95;101438.69;1515867;93;21121;-50
2021/08/12 02:40:41;;;;;;;13.40;6.75;;;;;;;26.58;53.79;101441.96;1510176;92;21596;-49
2021/08/12 02:43:09;;;;;;;9.30;6.62;;;;;;;26.57;54.03;101449.59;1576039;88;21062;-50
2021/08/12 02:45:36;;;;;;;8.65;6.42;;;;;;;26.55;54.13;101441.70;1580222;88;21062;-48
2021/08/12 02:48:03;;;;;;;8.75;6.70;;;;;;;26.53;54.14;101451.66;1609528;88;21121;-49
2021/08/12 02:50:32;;;;;;;10.00;6.95;;;;;;;26.51;54.23;101459.41;1592447;88;21135;-49
2021/08/12 02:52:59;;;;;;;10.43;6.05;;;;;;;26.46;54.52;101462.42;1595625;89;21026;-47
2021/08/12 02:55:26;;;;;;;9.70;7.40;;;;;;;26.45;54.47;101463.88;1614235;88;21598;-49
2021/08/12 02:57:52;;;;;;;9.28;6.65;;;;;;;26.39;55.00;101457.20;1606832;88;21129;-49
2021/08/12 03:00:21;;;;;;;8.10;6.40;;;;;;;26.39;55.00;101457.20;1608540;88;21057;-49
2021/08/12 03:02:48;;;;;;;8.08;7.10;;;;;;;26.38;54.38;101459.97;1650050;84;21085;-50
2021/08/12 03:05:15;;;;;;;7.12;6.37;;;;;;;26.34;54.38;101461.17;1684841;84;21073;-47
2021/08/12 03:07:44;;;;;;;13.70;7.10;;;;;;;26.35;54.67;101468.23;1678472;83;22339;-48
2021/08/12 03:10:17;;;;;;;8.73;7.03;;;;;;;26.32;54.54;101473.78;1672838;84;21060;-50
2021/08/12 03:12:48;;;;;;;8.30;6.95;;;;;;;26.31;54.44;101474.77;1676054;83;21010;-46
2021/08/12 03:15:14;;;;;;;8.35;6.30;;;;;;;26.30;54.76;101473.05;1660811;85;21557;-47
2021/08/12 03:17:43;;;;;;;9.58;6.70;;;;;;;26.28;54.51;101462.50;1651559;86;21605;-49
2021/08/12 03:20:12;;;;;;;10.65;7.22;;;;;;;26.30;55.15;101472.57;1652359;86;21535;-47
2021/08/12 03:22:42;;;;;;;9.73;6.65;;;;;;;26.30;55.15;101472.57;1653457;86;21539;-49
2021/08/12 03:25:11;;;;;;;7.65;6.83;;;;;;;26.30;54.84;101473.05;1665841;84;21081;-47
2021/08/12 03:27:39;;;;;;;10.70;6.83;;;;;;;26.31;54.51;101470.77;1696187;84;21208;-46
2021/08/12 03:30:08;;;;;;;12.55;6.80;;;;;;;26.28;54.60;101465.64;1695723;83;21029;-48
2021/08/12 03:32:34;;;;;;;11.22;7.40;;;;;;;26.28;54.60;101465.64;1696295;83;21561;-47
2021/08/12 03:35:01;;;;;;;8.88;7.20;;;;;;;26.30;55.07;101474.38;1637957;86;21099;-48
2021/08/12 03:37:30;;;;;;;9.30;7.60;;;;;;;26.27;55.01;101471.48;1643942;86;21067;-48
2021/08/12 03:39:56;;;;;;;8.13;7.00;;;;;;;26.27;54.86;101473.30;1626177;86;21076;-52
2021/08/12 03:42:23;;;;;;;8.25;7.33;;;;;;;26.24;54.65;101473.52;1644098;86;21083;-47
2021/08/12 03:44:50;;;;;;;10.93;7.42;;;;;;;26.25;54.52;101472.56;1643961;86;21576;-49
2021/08/12 03:47:19;;;;;;;7.80;6.28;;;;;;;26.24;54.85;101481.52;1642466;86;21083;-50
2021/08/12 03:49:45;;;;;;;7.53;6.70;;;;;;;26.27;54.97;101489.30;1642916;86;21597;-50
2021/08/12 03:52:13;;;;;;;17.37;7.10;;;;;;;26.27;55.05;101497.31;1648263;86;21617;-50
2021/08/12 03:54:40;;;;;;;14.23;7.60;;;;;;;26.27;54.81;101494.64;1652168;86;21036;-52
2021/08/12 03:57:07;;;;;;;9.50;7.62;;;;;;;26.25;54.92;101508.58;1647734;86;21128;-48
2021/08/12 03:59:33;;;;;;;10.35;6.85;;;;;;;26.23;54.80;101511.84;1641055;86;21048;-48
2021/08/12 04:02:01;;;;;;;12.13;7.10;;;;;;;26.23;54.62;101510.52;1695627;84;21069;-48
2021/08/12 04:04:27;;;;;;;9.10;7.12;;;;;;;26.19;54.58;101515.71;1695292;83;21513;-48
2021/08/12 04:06:54;;;;;;;26.35;9.60;;;;;;;26.19;54.58;101515.71;1695126;84;21134;-49
2021/08/12 04:09:21;;;;;;;14.20;7.35;;;;;;;26.18;54.50;101520.66;1696170;83;20990;-48
2021/08/12 04:11:48;;;;;;;8.88;7.03;;;;;;;26.14;54.37;101513.86;1704826;82;21065;-48
2021/08/12 04:14:15;;;;;;;11.95;8.75;;;;;;;26.13;54.76;101526.84;1726671;82;21019;-50
2021/08/12 04:16:42;;;;;;;17.07;7.92;;;;;;;26.16;54.54;101529.27;1730464;82;21428;-52
2021/08/12 04:19:09;;;;;;;12.95;7.40;;;;;;;26.13;54.84;101530.34;1723527;82;21036;-48
2021/08/12 04:21:36;;;;;;;13.22;7.75;;;;;;;26.13;54.40;101537.52;1716004;82;21517;-48
2021/08/12 04:24:04;;;;;;;12.35;7.30;;;;;;;26.10;54.54;101539.91;1722263;82;21026;-49
2021/08/12 04:26:31;;;;;;;8.63;6.58;;;;;;;26.10;54.54;101539.91;1723219;82;21101;-48
2021/08/12 04:28:58;;;;;;;10.95;8.05;;;;;;;26.07;54.65;101541.46;1723734;82;21086;-48
2021/08/12 04:31:25;;;;;;;26.42;8.58;;;;;;;26.08;54.65;101544.98;1725265;82;21054;-50
2021/08/12 04:33:52;;;;;;;11.65;7.03;;;;;;;26.07;54.57;101544.12;1720891;82;21081;-49
2021/08/12 04:36:19;;;;;;;10.48;7.35;;;;;;;26.10;54.83;101547.06;1719871;82;21030;-47
2021/08/12 04:38:46;;;;;;;10.63;7.37;;;;;;;26.10;54.83;101547.06;1722301;82;21502;-49
2021/08/12 04:41:14;;;;;;;7.92;6.97;;;;;;;26.12;54.44;101541.13;1721264;82;21039;-50
2021/08/12 04:43:41;;;;;;;7.80;7.00;;;;;;;26.12;54.58;101541.13;1721517;82;21066;-50
2021/08/12 04:46:07;;;;;;;14.45;7.30;;;;;;;26.10;54.58;101544.39;1719668;82;21037;-51
2021/08/12 04:48:35;;;;;;;9.33;7.40;;;;;;;26.10;54.58;101544.39;1721704;82;21117;-47
2021/08/12 04:51:01;;;;;;;12.40;11.15;;;;;;;26.12;54.31;101547.80;1725777;82;21046;-48
2021/08/12 04:53:29;;;;;;;9.78;7.58;;;;;;;26.16;54.47;101557.27;1722066;82;21026;-50
2021/08/12 04:55:56;;;;;;;9.15;7.28;;;;;;;26.16;54.47;101557.27;1725359;82;21089;-47
2021/08/12 04:58:22;;;;;;;8.18;6.65;;;;;;;26.17;54.12;101557.66;1711182;82;21062;-50
2021/08/12 05:00:49;;;;;;;10.40;7.45;;;;;;;26.25;53.90;101555.27;1724675;82;20978;-47
2021/08/12 05:03:16;;;;;;;9.43;7.40;;;;;;;26.25;54.17;101559.27;1723326;82;21043;-47
2021/08/12 05:05:44;;;;;;;7.80;6.70;;;;;;;26.25;54.23;101563.27;1724361;82;21046;-51
2021/08/12 05:08:11;;;;;;;10.72;7.55;;;;;;;26.29;54.19;101564.75;1721902;82;21082;-47
2021/08/12 05:10:38;;;;;;;11.57;7.87;;;;;;;26.27;54.37;101562.20;1718371;82;21058;-49
2021/08/12 05:13:04;;;;;;;7.58;6.78;;;;;;;26.27;54.37;101562.20;1722964;82;21097;-50
2021/08/12 05:15:33;;;;;;;11.00;7.03;;;;;;;26.32;54.10;101568.50;1724221;82;21114;-49
2021/08/12 05:18:01;;;;;;;8.08;6.87;;;;;;;26.33;54.00;101576.89;1720453;83;21022;-51
2021/08/12 05:20:28;;;;;;;7.70;6.90;;;;;;;26.33;54.12;101572.41;1719309;82;21062;-48
2021/08/12 05:22:56;;;;;;;13.10;7.28;;;;;;;26.36;54.10;101571.31;1723051;82;21098;-53
2021/08/12 05:25:23;;;;;;;9.48;6.70;;;;;;;26.40;53.90;101571.45;1722620;82;21093;-49
2021/08/12 05:27:50;;;;;;;8.78;6.92;;;;;;;26.40;53.90;101571.45;1717738;82;21518;-52
2021/08/12 05:30:17;;;;;;;8.68;6.47;;;;;;;26.44;53.84;101576.95;1723306;82;21026;-49
2021/08/12 05:32:45;;;;;;;14.40;9.80;;;;;;;26.50;53.84;101581.83;1725334;82;21554;-48
2021/08/12 05:35:13;;;;;;;8.93;8.00;;;;;;;26.50;53.84;101581.83;1723330;82;21062;-51
2021/08/12 05:37:42;;;;;;;8.63;7.67;;;;;;;26.52;53.78;101579.90;1723913;82;21070;-50
2021/08/12 05:40:10;;;;;;;8.70;7.35;;;;;;;26.57;53.78;101581.72;1724332;82;21038;-48
2021/08/12 05:42:37;;;;;;;9.15;6.95;;;;;;;26.63;53.78;101583.92;1724110;82;21514;-47
2021/08/12 05:45:06;;;;;;;11.30;7.50;;;;;;;26.67;53.68;101578.72;1727101;82;21034;-47
2021/08/12 05:47:35;;;;;;;12.18;7.45;;;;;;;26.70;53.51;101573.16;1725887;82;21031;-47
2021/08/12 05:50:04;;;;;;;8.95;7.03;;;;;;;26.75;53.54;101571.01;1720315;82;21082;-51
2021/08/12 05:52:32;;;;;;;9.20;7.42;;;;;;;26.82;53.43;101570.92;1721410;82;21046;-47
2021/08/12 05:55:00;;;;;;;6.95;6.25;;;;;;;26.90;52.92;101573.85;1719764;81;21499;-46
2021/08/12 05:57:28;;;;;;;10.80;9.63;;;;;;;26.96;52.66;101574.71;1715914;82;21546;-49
2021/08/12 05:59:55;;;;;;;13.30;7.85;;;;;;;27.03;52.55;101571.95;1730878;82;21073;-50
2021/08/12 06:02:22;;;;;;;7.30;6.60;;;;;;;27.11;52.61;101570.00;1729703;82;21042;-49
2021/08/12 06:04:49;;;;;;;11.35;7.30;;;;;;;27.17;52.01;101575.73;1725445;82;21014;-49
2021/08/12 06:07:16;;;;;;;9.03;6.28;;;;;;;27.25;51.99;101583.99;1719041;82;21018;-48
2021/08/12 06:09:43;;;;;;;9.28;7.08;;;;;;;27.34;51.61;101581.98;1728465;81;21469;-49
2021/08/12 06:12:11;;;;;;;10.43;6.85;;;;;;;27.43;51.29;101591.58;1724591;82;21062;-50
2021/08/12 06:14:41;;;;;;;9.98;7.15;;;;;;;27.50;51.43;101588.29;1715674;82;21056;-50
2021/08/12 06:17:09;;;;;;;10.85;6.72;;;;;;;27.57;51.34;101596.20;1714118;82;21057;-47
2021/08/12 06:19:38;;;;;;;8.95;6.65;;;;;;;27.62;51.02;101599.81;1730786;82;21082;-46
2021/08/12 06:22:05;;;;;;;8.80;6.45;;;;;;;27.64;50.97;101596.53;1725670;83;21515;-49
2021/08/12 06:24:32;;;;;;;7.62;6.80;;;;;;;27.68;50.85;101599.33;1718924;82;21096;-48
2021/08/12 06:26:59;;;;;;;11.05;6.83;;;;;;;27.70;50.78;101604.09;1729374;82;21035;-47
2021/08/12 06:29:27;;;;;;;11.03;7.30;;;;;;;27.74;50.80;101612.23;1731016;81;21073;-47
2021/08/12 06:31:54;;;;;;;8.55;6.97;;;;;;;27.77;50.45;101613.31;1715342;82;21074;-47
2021/08/12 06:34:23;;;;;;;11.68;7.87;;;;;;;27.80;50.10;101607.73;1726175;82;21085;-49
2021/08/12 06:36:52;;;;;;;6.80;6.10;;;;;;;27.83;50.22;101616.84;1719731;82;21534;-46
2021/08/12 06:39:20;;;;;;;15.45;6.90;;;;;;;27.87;49.91;101612.94;1727189;82;21101;-46
2021/08/12 06:41:48;;;;;;;8.65;6.78;;;;;;;27.90;49.67;101615.38;1705756;83;21045;-48
2021/08/12 06:44:18;;;;;;;13.93;7.17;;;;;;;27.94;49.26;101620.84;1723829;82;21260;-48
2021/08/12 06:46:45;;;;;;;8.65;6.90;;;;;;;27.97;49.10;101617.46;1719546;82;21057;-45
2021/08/12 06:49:13;;;;;;;7.33;6.50;;;;;;;28.01;49.05;101624.74;1721384;82;21034;-49
2021/08/12 06:51:41;;;;;;;9.90;7.47;;;;;;;28.07;48.96;101625.58;1726564;82;21078;-48
2021/08/12 06:54:09;;;;;;;7.12;6.42;;;;;;;28.11;48.80;101621.68;1712612;82;21102;-48
2021/08/12 06:56:38;;;;;;;7.08;6.33;;;;;;;28.14;48.40;101629.47;1718791;82;21614;-50
2021/08/12 06:59:05;;;;;;;7.37;6.50;;;;;;;28.16;48.40;101629.72;1729507;82;21117;-45
2021/08/12 07:01:34;;;;;;;12.37;6.95;;;;;;;28.19;48.68;101623.27;1724266;82;21582;-48
2021/08/12 07:04:01;;;;;;;10.58;6.33;;;;;;;28.23;48.66;101628.73;1718360;82;21543;-47
2021/08/12 07:06:38;;;;;;;9.50;6.22;;;;;;;28.29;48.49;101631.39;1725345;82;21051;-48
2021/08/12 07:09:06;;;;;;;8.08;6.72;;;;;;;28.30;48.45;101627.24;1720185;82;21041;-46
2021/08/12 07:11:34;;;;;;;8.00;6.65;;;;;;;28.35;48.46;101627.73;1721724;81;21907;-49
2021/08/12 07:14:01;;;;;;;9.85;6.60;;;;;;;28.40;48.50;101630.03;1727214;81;21014;-46
2021/08/12 07:16:30;;;;;;;11.78;6.75;;;;;;;28.46;48.37;101628.19;1731386;81;21553;-50
2021/08/12 07:18:58;;;;;;;9.43;6.40;;;;;;;28.52;48.20;101634.37;1731778;81;21038;-49
2021/08/12 07:21:28;;;;;;;9.80;6.70;;;;;;;28.58;47.78;101632.55;1734143;81;20975;-51
2021/08/12 07:23:58;;;;;;;12.37;6.70;;;;;;;28.62;47.31;101632.17;1736130;81;21046;-50
2021/08/12 07:26:26;;;;;;;10.23;6.42;;;;;;;28.62;47.21;101633.52;1727755;81;21030;-50
2021/08/12 07:28:54;;;;;;;8.43;5.90;;;;;;;28.67;47.25;101633.10;1718757;81;20998;-48
2021/08/12 07:31:21;;;;;;;7.62;6.17;;;;;;;28.70;47.18;101636.40;1722808;82;21557;-48
2021/08/12 07:33:49;;;;;;;7.53;6.28;;;;;;;28.71;46.71;101635.41;1722615;82;21015;-49
2021/08/12 07:36:17;;;;;;;12.78;6.22;;;;;;;28.73;46.94;101630.77;1740821;80;21475;-50
2021/08/12 07:38:45;;;;;;;8.75;5.75;;;;;;;28.75;46.78;101634.64;1702119;82;21019;-47
2021/08/12 07:41:12;;;;;;;6.80;5.30;;;;;;;28.75;46.21;101621.25;1687344;83;21542;-47
2021/08/12 07:43:40;;;;;;;14.73;6.65;;;;;;;28.77;45.95;101625.52;1664215;85;21017;-47
2021/08/12 07:46:09;;;;;;;10.58;5.65;;;;;;;28.79;45.93;101626.75;1682072;83;21190;-49
2021/08/12 07:48:36;;;;;;;10.28;6.65;;;;;;;28.82;46.42;101624.65;1672046;83;21052;-47
2021/08/12 07:51:04;;;;;;;11.45;6.35;;;;;;;28.86;46.61;101632.78;1670137;84;21058;-49
2021/08/12 07:53:31;;;;;;;9.88;6.95;;;;;;;28.88;46.45;101632.17;1689064;83;21063;-48
2021/08/12 07:56:00;;;;;;;7.28;6.35;;;;;;;28.90;46.60;101632.88;1676549;83;21011;-48
2021/08/12 07:58:27;;;;;;;8.20;6.55;;;;;;;28.94;46.60;101634.33;1668257;84;21034;-48
2021/08/12 08:00:54;;;;;;;10.28;6.85;;;;;;;28.97;46.59;101632.70;1691987;83;21087;-49
2021/08/12 08:03:21;;;;;;;7.28;5.87;;;;;;;29.01;46.44;101643.18;1685503;83;21154;-47
2021/08/12 08:05:47;;;;;;;7.22;5.30;;;;;;;29.02;46.02;101630.98;1684216;84;21020;-50
2021/08/12 08:08:15;;;;;;;9.10;5.95;;;;;;;29.05;45.58;101632.56;1693182;84;21035;-47
2021/08/12 08:10:43;;;;;;;7.45;5.87;;;;;;;29.05;45.92;101629.87;1700049;82;21070;-51
2021/08/12 08:13:10;;;;;;;10.15;6.60;;;;;;;29.09;45.96;101634.00;1700381;82;21013;-49
2021/08/12 08:15:39;;;;;;;7.87;5.83;;;;;;;29.14;45.70;101634.47;1688028;82;21029;-50
2021/08/12 08:18:06;;;;;;;5.92;5.30;;;;;;;29.19;45.65;101634.94;1737965;81;21009;-48
2021/08/12 08:20:35;;;;;;;6.72;5.65;;;;;;;29.22;45.02;101632.01;1734698;81;21049;-49
2021/08/12 08:23:07;;;;;;;7.58;5.65;;;;;;;29.26;44.89;101638.80;1684483;84;21049;-51
2021/08/12 08:25:35;;;;;;;6.95;5.58;;;;;;;29.28;44.66;101631.48;1693115;83;20982;-53
2021/08/12 08:28:04;;;;;;;5.55;5.03;;;;;;;29.32;44.63;101638.27;1686634;83;21042;-49
2021/08/12 08:30:33;;;;;;;5.80;4.97;;;;;;;29.36;44.80;101627.16;1673018;83;20999;-48
2021/08/12 08:33:00;;;;;;;10.05;5.28;;;;;;;29.40;44.71;101635.77;1679346;84;21095;-48
2021/08/12 08:35:28;;;;;;;10.65;5.15;;;;;;;29.43;44.29;101626.97;1681827;83;21008;-50
2021/08/12 08:38:00;;;;;;;8.70;4.75;;;;;;;29.47;43.88;101635.09;1702777;82;21026;-50
2021/08/12 08:40:27;;;;;;;5.83;4.55;;;;;;;29.51;44.02;101638.39;1690534;82;21531;-51
2021/08/12 08:42:54;;;;;;;6.80;5.20;;;;;;;29.55;43.66;101635.28;1689673;83;21106;-49
2021/08/12 08:45:26;;;;;;;9.18;5.83;;;;;;;29.59;43.75;101630.52;1679275;84;21048;-51
2021/08/12 08:47:55;;;;;;;7.47;5.12;;;;;;;29.63;44.00;101639.99;1646929;85;21113;-47
2021/08/12 08:50:25;;;;;;;10.25;5.92;;;;;;;29.67;44.20;101634.72;1643153;86;21087;-49
2021/08/12 08:52:53;;;;;;;6.20;5.55;;;;;;;29.72;43.89;101639.16;1628000;85;21026;-47
2021/08/12 08:57:56;;;;;;;9.10;4.83;;;;;;;29.81;43.52;101634.38;1587597;87;21190;-48
2021/08/12 09:00:24;;;;;;;8.85;6.10;;;;;;;29.86;43.07;101636.17;1580314;90;21101;-51
2021/08/12 09:02:53;;;;;;;8.73;5.90;;;;;;;29.92;44.11;101639.66;1588585;89;21102;-51
2021/08/12 09:05:21;;;;;;;13.30;6.08;;;;;;;29.96;43.71;101641.08;1576908;89;21137;-48
2021/08/12 09:07:50;;;;;;;8.63;6.03;;;;;;;29.96;43.48;101638.39;1578622;88;21066;-50
2021/08/12 09:10:17;;;;;;;8.20;5.50;;;;;;;29.99;43.50;101636.76;1575968;88;21066;-52
2021/08/12 09:12:45;;;;;;;9.33;5.53;;;;;;;30.02;42.68;101644.55;1574351;89;21077;-53
2021/08/12 09:15:18;;;;;;;7.60;5.03;;;;;;;30.05;42.87;101643.41;1579441;89;21269;-50
2021/08/12 09:17:44;;;;;;;5.62;4.90;;;;;;;30.08;42.01;101641.32;1590156;89;21062;-49
2021/08/12 09:20:18;;;;;;;5.10;4.60;;;;;;;30.13;41.84;101644.42;1588080;88;21077;-48
2021/08/12 09:23:04;;;;;;;9.40;5.42;;;;;;;30.17;41.44;101643.16;1595836;88;21027;-47
2021/08/12 09:28:31;;;;;;;9.00;4.65;;;;;;;30.23;41.07;101646.63;1585169;89;21115;-51
2021/08/12 09:31:04;;;;;;;7.22;4.83;;;;;;;30.27;41.10;101653.94;1579261;90;21622;-51
2021/08/12 09:33:52;;;;;;;4.92;4.47;;;;;;;30.28;41.50;101653.80;1582816;89;21101;-48
2021/08/12 09:36:34;;;;;;;4.30;3.90;;;;;;;30.31;41.32;101650.87;1576953;89;21030;-49
2021/08/12 09:39:10;;;;;;;7.67;4.30;;;;;;;30.33;40.89;101655.62;1596114;88;21063;-50
2021/08/12 09:41:51;;;;;;;7.25;4.05;;;;;;;30.36;40.90;101648.61;1586528;89;21587;-50
2021/08/12 09:47:29;;;;;;;5.92;4.40;;;;;;;30.42;40.78;101664.16;1611855;88;21041;-51
2021/08/12 09:49:59;;;;;;;6.58;4.37;;;;;;;30.44;40.60;101658.16;1629110;86;21081;-49
2021/08/12 09:52:37;;;;;;;6.95;4.20;;;;;;;30.47;41.07;101653.01;1634320;86;21615;-50
2021/08/12 09:55:14;;;;;;;8.35;4.58;;;;;;;30.47;40.52;101655.20;1610900;86;21034;-52
2021/08/12 09:57:45;;;;;;;8.63;4.15;;;;;;;30.49;40.28;101661.77;1630722;86;20988;-52
2021/08/12 10:00:17;;;;;;;5.37;4.12;;;;;;;30.52;39.75;101656.97;1590287;87;21140;-49
2021/08/12 10:02:44;;;;;;;12.13;4.60;;;;;;;30.53;39.02;101662.70;1619542;88;21047;-48
2021/08/12 10:05:11;;;;;;;7.37;3.72;;;;;;;30.57;39.24;101671.81;1592903;88;21267;-50
2021/08/12 10:07:49;;;;;;;5.42;3.72;;;;;;;30.59;39.23;101664.46;1604676;88;21614;-48
2021/08/12 10:10:24;;;;;;;14.93;5.12;;;;;;;30.61;39.38;101662.48;1606341;88;21372;-49
2021/08/12 10:12:55;;;;;;;7.25;5.40;;;;;;;30.63;38.05;101671.25;1613516;88;21095;-51
2021/08/12 10:15:29;;;;;;;9.85;5.12;;;;;;;30.62;38.22;101672.25;1608808;87;21519;-50
2021/08/12 10:17:59;;;;;;;12.33;5.30;;;;;;;30.62;38.48;101660.16;1582805;89;21102;-49
2021/08/12 10:20:32;;;;;;;5.35;3.85;;;;;;;30.63;38.09;101660.50;1565712;90;21057;-51
2021/08/12 10:23:02;;;;;;;5.10;4.62;;;;;;;30.62;38.14;101658.34;1579043;90;21040;-50
2021/08/12 10:25:29;;;;;;;6.72;4.47;;;;;;;30.64;39.29;101666.25;1632532;85;21034;-51
2021/08/12 10:27:58;;;;;;;5.10;4.40;;;;;;;30.65;39.04;101664.75;1644162;85;21071;-50
2021/08/12 10:30:26;;;;;;;5.15;4.25;;;;;;;30.66;38.66;101670.98;1623861;86;21037;-52
2021/08/12 10:32:57;;;;;;;5.58;3.55;;;;;;;30.66;38.91;101668.30;1617713;87;21026;-48
2021/08/12 10:35:29;;;;;;;6.30;3.98;;;;;;;30.67;38.42;101666.80;1618734;86;21082;-50
2021/08/12 10:37:59;;;;;;;4.53;3.33;;;;;;;30.68;38.27;101664.98;1615758;86;21588;-51
2021/08/12 10:40:28;;;;;;;9.23;3.83;;;;;;;30.69;37.94;101666.66;1617605;87;21095;-49
2021/08/12 10:42:58;;;;;;;11.00;4.05;;;;;;;30.70;38.27;101672.40;1652237;85;21229;-50
2021/08/12 10:45:28;;;;;;;7.47;3.87;;;;;;;30.71;38.37;101674.94;1606689;87;21055;-50
2021/08/12 10:47:58;;;;;;;3.75;3.45;;;;;;;30.74;38.24;101673.81;1617848;86;21156;-47
2021/08/12 10:50:34;;;;;;;5.83;3.17;;;;;;;30.75;37.33;101670.98;1626447;86;21159;-49
2021/08/12 10:53:15;;;;;;;4.30;3.35;;;;;;;30.79;38.53;101668.36;1612839;87;21044;-49
2021/08/12 10:56:03;;;;;;;3.75;3.22;;;;;;;30.83;38.41;101672.98;1623256;86;21050;-50
2021/08/12 10:58:36;;;;;;;3.98;3.45;;;;;;;30.84;38.03;101673.31;1679717;84;21081;-47
2021/08/12 11:01:06;;;;;;;3.50;2.98;;;;;;;30.86;37.21;101679.43;1663903;84;21684;-51
2021/08/12 11:03:48;;;;;;;4.73;3.10;;;;;;;30.88;37.84;101676.11;1661735;85;21101;-49
2021/08/12 11:06:18;;;;;;;5.65;3.37;;;;;;;30.89;37.86;101672.44;1609803;87;21560;-49
2021/08/12 11:08:57;;;;;;;3.75;3.42;;;;;;;30.91;37.80;101671.80;1633660;86;21070;-49
2021/08/12 11:11:36;;;;;;;3.92;3.00;;;;;;;30.94;37.56;101675.53;1651212;86;21098;-49
2021/08/12 11:14:10;;;;;;;8.45;3.15;;;;;;;30.97;37.77;101678.81;1642558;86;21050;-48
2021/08/12 11:16:49;;;;;;;3.15;2.72;;;;;;;31.03;38.25;101682.76;1654840;86;21081;-50
2021/08/12 11:19:28;;;;;;;6.90;3.10;;;;;;;31.06;37.88;101675.25;1633813;87;21613;-49
2021/08/12 11:21:56;;;;;;;5.28;3.58;;;;;;;31.12;38.24;101673.81;1622384;87;21059;-49
2021/08/12 11:24:29;;;;;;;6.70;2.87;;;;;;;31.16;37.98;101669.88;1599246;89;21010;-50
2021/08/12 11:27:04;;;;;;;4.92;3.17;;;;;;;31.18;36.54;101671.92;1630170;86;21041;-49
2021/08/12 11:32:11;;;;;;;4.62;2.75;;;;;;;31.19;37.38;101668.23;1570656;89;21636;-51
2021/08/12 11:34:55;;;;;;;5.03;3.05;;;;;;;31.20;36.92;101671.28;1608564;88;21570;-51
2021/08/12 11:37:28;;;;;;;3.92;3.05;;;;;;;31.22;37.07;101667.95;1592844;88;21069;-50
2021/08/12 11:40:11;;;;;;;3.20;2.47;;;;;;;31.25;37.33;101669.00;1564326;90;21017;-50
2021/08/12 11:42:47;;;;;;;5.20;2.75;;;;;;;31.26;37.08;101673.40;1552884;91;21120;-50
2021/08/12 11:45:21;;;;;;;3.90;2.62;;;;;;;31.27;36.42;101670.55;1531284;93;21629;-49